Time;durP1;ratioP1;P1;durP2;ratioP2;P2;SDS_P1;SDS_P2;PMS_P1;PMS_P2;Temp;Humidity;BMP_temperature;BMP_pressure;BME280_temperature;BME280_humidity;BME280_pressure;Samples;Min_cycle;Max_cycle;Signal;HPM_P1;HPM_P2
2022/05/26 00:01:11;;;;;;;3.77;2.07;;;16.30;59.50;;;;;;4990995;28;20457;-60
2022/05/26 00:03:40;;;;;;;2.60;2.40;;;16.20;59.90;;;;;;4991439;28;20517;-60
2022/05/26 00:06:08;;;;;;;5.90;2.20;;;16.30;61.00;;;;;;4990712;28;20449;-60
2022/05/26 00:08:37;;;;;;;3.67;2.20;;;16.20;61.50;;;;;;4990827;28;20989;-60
2022/05/26 00:11:04;;;;;;;2.50;2.27;;;16.20;62.50;;;;;;4990736;28;20458;-60
2022/05/26 00:13:31;;;;;;;2.33;2.13;;;16.20;63.10;;;;;;4990802;28;20457;-60
2022/05/26 00:15:58;;;;;;;4.07;2.40;;;16.10;63.90;;;;;;4990645;28;20453;-60
2022/05/26 00:18:27;;;;;;;5.90;2.63;;;16.10;64.70;;;;;;4990478;28;20974;-61
2022/05/26 00:20:54;;;;;;;3.20;2.33;;;16.10;65.20;;;;;;4990805;28;20450;-61
2022/05/26 00:23:21;;;;;;;7.13;2.80;;;16.10;65.90;;;;;;4990758;28;20449;-60
2022/05/26 00:25:48;;;;;;;3.37;2.30;;;16.10;66.30;;;;;;4993077;28;20443;-59
2022/05/26 00:28:16;;;;;;;2.90;2.40;;;16.00;66.70;;;;;;4993867;28;20487;-61
2022/05/26 00:30:43;;;;;;;3.40;2.90;;;16.00;67.50;;;;;;4993958;28;20487;-60
2022/05/26 00:33:11;;;;;;;2.90;2.40;;;16.10;68.40;;;;;;4993820;28;20822;-59
2022/05/26 00:35:40;;;;;;;8.17;2.87;;;16.00;69.00;;;;;;4994057;28;20834;-61
2022/05/26 00:38:09;;;;;;;3.97;1.77;;;16.00;70.30;;;;;;4993999;28;20549;-61
2022/05/26 00:40:37;;;;;;;3.77;2.23;;;16.00;75.30;;;;;;4994357;28;20448;-60
2022/05/26 00:43:05;;;;;;;2.60;1.80;;;15.80;79.10;;;;;;4993934;28;20455;-61
2022/05/26 00:45:37;;;;;;;4.53;2.03;;;15.60;81.80;;;;;;4993992;28;20512;-60
2022/05/26 00:48:10;;;;;;;3.87;1.70;;;15.50;84.90;;;;;;4993541;28;20477;-60
2022/05/26 00:50:45;;;;;;;2.33;2.07;;;15.40;86.90;;;;;;4993886;28;20455;-60
2022/05/26 00:53:17;;;;;;;3.83;1.60;;;15.30;89.50;;;;;;4993772;28;20429;-61
2022/05/26 00:55:51;;;;;;;2.07;1.87;;;15.20;90.60;;;;;;4993869;28;20468;-60
2022/05/26 00:58:23;;;;;;;3.17;1.77;;;15.20;91.10;;;;;;4993698;28;20472;-61
2022/05/26 01:00:50;;;;;;;2.87;2.10;;;15.10;91.50;;;;;;4993753;28;20438;-61
2022/05/26 01:03:23;;;;;;;3.10;2.70;;;15.00;92.00;;;;;;4993303;28;20451;-60
2022/05/26 01:05:54;;;;;;;4.83;2.70;;;15.00;92.50;;;;;;4993885;28;20433;-60
2022/05/26 01:08:26;;;;;;;3.23;2.10;;;15.00;92.70;;;;;;4993260;28;20845;-60
2022/05/26 01:10:54;;;;;;;5.23;2.60;;;15.00;93.30;;;;;;4993764;28;20436;-59
2022/05/26 01:13:22;;;;;;;4.10;3.00;;;14.90;92.90;;;;;;4993469;28;20529;-60
2022/05/26 01:15:58;;;;;;;3.43;2.73;;;15.00;93.00;;;;;;4993417;28;20474;-60
2022/05/26 01:18:35;;;;;;;3.47;2.73;;;15.00;93.00;;;;;;4993526;28;20478;-60
2022/05/26 01:21:10;;;;;;;3.43;3.03;;;15.00;93.00;;;;;;4994009;28;20495;-60
2022/05/26 01:24:13;;;;;;;3.90;3.00;;;15.00;93.10;;;;;;4993295;28;20906;-60
2022/05/26 01:27:09;;;;;;;4.40;2.90;;;15.00;92.90;;;;;;4993258;28;20979;-61
2022/05/26 01:30:11;;;;;;;3.23;3.03;;;15.10;92.90;;;;;;4998352;28;20459;-61
2022/05/26 01:32:53;;;;;;;4.47;2.97;;;15.10;92.90;;;;;;4993795;28;20447;-61
2022/05/26 01:35:29;;;;;;;4.73;2.73;;;15.10;92.90;;;;;;4993331;28;20594;-60
2022/05/26 01:38:07;;;;;;;4.17;2.93;;;15.10;92.90;;;;;;4992556;28;20474;-60
2022/05/26 01:40:40;;;;;;;4.27;2.90;;;15.10;92.90;;;;;;4993220;28;20433;-61
2022/05/26 01:43:15;;;;;;;4.80;3.03;;;15.10;92.90;;;;;;4993059;28;20936;-61
2022/05/26 01:45:51;;;;;;;3.93;2.93;;;15.10;92.90;;;;;;4992788;28;20431;-60
2022/05/26 01:48:27;;;;;;;3.30;3.00;;;15.10;93.00;;;;;;4992903;28;20468;-61
2022/05/26 01:51:01;;;;;;;5.23;2.50;;;15.10;93.00;;;;;;4993033;28;20791;-61
2022/05/26 01:53:33;;;;;;;4.47;2.97;;;15.20;93.00;;;;;;4993079;28;20429;-60
2022/05/26 01:56:09;;;;;;;4.20;3.40;;;15.20;92.90;;;;;;4992819;28;20475;-60
2022/05/26 01:58:41;;;;;;;3.90;3.60;;;15.20;92.70;;;;;;4992730;28;20470;-61
2022/05/26 02:01:12;;;;;;;4.80;3.60;;;15.20;92.60;;;;;;4992871;28;20439;-60
2022/05/26 02:03:44;;;;;;;5.07;3.30;;;15.20;92.50;;;;;;4992956;28;20439;-60
2022/05/26 02:06:16;;;;;;;7.40;4.20;;;15.20;92.50;;;;;;4992611;28;20432;-60
2022/05/26 02:08:48;;;;;;;4.03;3.63;;;15.30;92.60;;;;;;5083440;22;20853;-60
2022/05/26 02:11:18;;;;;;;3.83;3.53;;;15.20;92.40;;;;;;5075233;28;20455;-60
2022/05/26 02:13:50;;;;;;;4.00;3.70;;;15.20;92.30;;;;;;5074968;28;20455;-60
2022/05/26 02:16:22;;;;;;;3.57;3.27;;;15.30;92.30;;;;;;5074689;28;20972;-60
2022/05/26 02:18:55;;;;;;;4.27;3.27;;;15.30;92.20;;;;;;5074860;28;20473;-60
2022/05/26 02:21:30;;;;;;;7.53;3.27;;;15.30;92.10;;;;;;5075090;28;20775;-60
2022/05/26 02:24:02;;;;;;;5.40;3.60;;;15.30;92.00;;;;;;5074881;28;20423;-60
2022/05/26 02:26:31;;;;;;;4.53;4.03;;;15.40;91.90;;;;;;5074845;28;20457;-60
2022/05/26 02:31:44;;;;;;;4.60;4.20;;;15.30;91.90;;;;;;5074699;28;20408;-61
2022/05/26 02:34:14;;;;;;;3.77;3.30;;;15.30;91.80;;;;;;5074361;28;20449;-60
2022/05/26 02:36:43;;;;;;;4.10;3.70;;;15.30;91.70;;;;;;5074944;28;20446;-60
2022/05/26 02:39:10;;;;;;;4.20;3.33;;;15.40;91.90;;;;;;5074421;28;20520;-61
2022/05/26 02:41:39;;;;;;;4.00;3.70;;;15.40;91.80;;;;;;5074495;28;20445;-60
2022/05/26 02:44:07;;;;;;;5.67;3.90;;;15.40;91.80;;;;;;5074609;28;20944;-60
2022/05/26 02:46:55;;;;;;;5.43;3.53;;;15.40;92.00;;;;;;5074348;28;20443;-61
2022/05/26 02:49:37;;;;;;;3.63;3.33;;;15.40;92.10;;;;;;5073104;28;20450;-61
2022/05/26 02:52:14;;;;;;;6.40;3.20;;;15.40;92.30;;;;;;5074089;28;20433;-61
2022/05/26 02:54:52;;;;;;;3.30;3.00;;;15.30;92.40;;;;;;5074260;28;20467;-60
2022/05/26 02:57:25;;;;;;;3.60;3.30;;;15.40;92.50;;;;;;5076301;28;20471;-60
2022/05/26 03:00:02;;;;;;;3.70;3.40;;;15.40;92.60;;;;;;5076248;28;20427;-60
2022/05/26 03:02:35;;;;;;;4.53;3.10;;;15.40;92.60;;;;;;5076145;28;20435;-60
2022/05/26 03:05:08;;;;;;;4.30;3.90;;;15.40;92.60;;;;;;5075694;28;20428;-61
2022/05/26 03:07:36;;;;;;;3.93;3.63;;;15.40;92.70;;;;;;5082709;28;20478;-61
2022/05/26 03:10:05;;;;;;;7.70;4.87;;;15.40;92.80;;;;;;5094919;28;20440;-61
2022/05/26 03:12:35;;;;;;;4.63;3.73;;;15.40;92.90;;;;;;5094756;28;20447;-61
2022/05/26 03:15:04;;;;;;;6.77;4.10;;;15.40;93.00;;;;;;5094393;28;20500;-60
2022/05/26 03:17:31;;;;;;;5.10;4.47;;;15.40;92.90;;;;;;5094682;28;20977;-61
2022/05/26 03:19:58;;;;;;;4.70;4.30;;;15.40;92.90;;;;;;5094498;28;20961;-60
2022/05/26 03:22:27;;;;;;;5.50;5.00;;;15.40;93.00;;;;;;5094508;28;20815;-61
2022/05/26 03:24:54;;;;;;;5.43;4.83;;;15.40;93.10;;;;;;5094836;28;20442;-61
2022/05/26 03:27:21;;;;;;;7.23;5.37;;;15.40;93.10;;;;;;5094149;28;20462;-61
2022/05/26 03:29:48;;;;;;;6.30;5.80;;;15.40;93.30;;;;;;5093866;28;20457;-61
2022/05/26 03:32:15;;;;;;;7.77;5.80;;;15.40;93.30;;;;;;5093870;28;20455;-61
2022/05/26 03:43:00;;;;;;;8.70;6.70;;;15.40;93.50;;;;;;5093830;28;20406;-61
2022/05/26 03:45:28;;;;;;;7.60;6.80;;;15.40;93.50;;;;;;5093811;28;20438;-61
2022/05/26 03:47:55;;;;;;;6.93;6.30;;;15.40;93.50;;;;;;5093421;28;20474;-60
2022/05/26 03:50:22;;;;;;;9.13;6.57;;;15.40;93.50;;;;;;5093470;28;20442;-61
2022/05/26 03:52:52;;;;;;;8.80;7.00;;;15.40;93.60;;;;;;5093559;28;20443;-60
2022/05/26 03:55:19;;;;;;;9.23;8.10;;;15.40;93.80;;;;;;5094165;28;21070;-60
2022/05/26 03:57:46;;;;;;;9.47;8.43;;;15.30;94.30;;;;;;5095176;28;20491;-61
2022/05/26 04:00:17;;;;;;;9.90;9.10;;;15.10;95.70;;;;;;5092765;28;20452;-60
2022/05/26 04:02:45;;;;;;;9.93;8.50;;;14.70;97.50;;;;;;5092786;28;20445;-61
2022/05/26 04:05:13;;;;;;;10.37;9.37;;;14.40;99.10;;;;;;5097027;28;20658;-60
2022/05/26 04:09:47;;;;;;;11.00;9.90;;;14.00;99.90;;;;;;5080594;27;20630;-61
2022/05/26 04:12:17;;;;;;;12.13;11.13;;;14.00;99.90;;;;;;5070706;28;20453;-61
2022/05/26 04:14:44;;;;;;;12.33;11.23;;;;;;;;;;5069857;28;20492;-61
2022/05/26 04:17:12;;;;;;;12.80;11.30;;;;;;;;;;5069490;28;20492;-62
2022/05/26 04:19:41;;;;;;;12.97;11.73;;;;;;;;;;5069864;28;20470;-62
2022/05/26 04:22:18;;;;;;;12.10;10.80;;;;;;;;;;5069689;28;20468;-62
2022/05/26 04:24:47;;;;;;;11.77;10.57;;;;;;;;;;5070067;28;20463;-61
2022/05/26 04:27:15;;;;;;;11.63;10.63;;;;;;;;;;5069575;28;20515;-62
2022/05/26 04:29:43;;;;;;;13.73;12.17;;;;;;;;;;5059819;28;20480;-61
2022/05/26 04:32:10;;;;;;;13.60;12.20;;;;;;;;;;5057015;28;20462;-63
2022/05/26 04:34:38;;;;;;;14.53;11.47;;;;;;;;;;5055814;28;20469;-61
2022/05/26 04:37:05;;;;;;;15.30;12.87;;;;;;;;;;5061037;28;20485;-62
2022/05/26 04:39:33;;;;;;;13.47;12.07;;;;;;;;;;5069483;28;20463;-61
2022/05/26 04:42:01;;;;;;;13.27;12.00;;;;;;;;;;5067791;28;20534;-62
2022/05/26 04:44:32;;;;;;;12.70;11.60;;;;;;;;;;5067983;28;20468;-61
2022/05/26 04:46:59;;;;;;;12.10;11.03;;;;;;;;;;5070324;28;20428;-62
2022/05/26 04:49:27;;;;;;;12.47;11.37;;;;;;;;;;5065981;28;20855;-60
2022/05/26 04:51:54;;;;;;;11.60;10.40;;;;;;;;;;5049983;28;20454;-62
2022/05/26 04:54:22;;;;;;;10.37;9.30;;;;;;;;;;5050085;28;20461;-61
2022/05/26 04:56:49;;;;;;;10.00;7.90;;;;;;;;;;5065473;28;20461;-61
2022/05/26 04:59:17;;;;;;;9.70;8.80;;;13.90;99.90;;;;;;5069906;28;20461;-62
2022/05/26 05:01:45;;;;;;;9.00;8.20;;;13.60;99.90;;;;;;5068930;28;20464;-61
2022/05/26 05:04:12;;;;;;;8.43;7.63;;;13.70;99.90;;;;;;5062069;28;20831;-61
2022/05/26 05:06:39;;;;;;;8.80;8.00;;;13.70;99.90;;;;;;5059669;28;20972;-61
2022/05/26 05:09:06;;;;;;;9.23;8.43;;;13.80;99.90;;;;;;5062901;28;20481;-60
2022/05/26 05:11:33;;;;;;;9.57;8.77;;;13.80;99.90;;;;;;5056105;28;20461;-63
2022/05/26 05:14:03;;;;;;;9.43;8.47;;;13.90;99.90;;;;;;5061664;28;20460;-61
2022/05/26 05:16:33;;;;;;;9.67;8.77;;;14.00;99.90;;;;;;5069534;28;20449;-62
2022/05/26 05:19:02;;;;;;;8.40;7.60;;;14.10;99.90;;;;;;5063158;28;20524;-61
2022/05/26 05:21:33;;;;;;;9.13;8.30;;;14.20;99.90;;;;;;5037725;28;20471;-62
2022/05/26 05:24:05;;;;;;;8.23;7.53;;;14.30;99.90;;;;;;5044810;28;20864;-62
2022/05/26 05:26:35;;;;;;;8.57;7.87;;;14.40;99.90;;;;;;5055389;28;20528;-61
2022/05/26 05:29:08;;;;;;;8.97;8.10;;;14.60;99.90;;;;;;5055043;28;20496;-62
2022/05/26 05:31:41;;;;;;;8.30;7.50;;;14.70;99.90;;;;;;5054726;28;20848;-60
2022/05/26 05:34:14;;;;;;;7.93;7.27;;;14.90;99.90;;;;;;5040202;28;20439;-60
2022/05/26 05:36:42;;;;;;;9.10;7.13;;;15.00;99.90;;;;;;5051414;28;20827;-62
2022/05/26 05:39:09;;;;;;;9.30;8.17;;;15.10;99.90;;;;;;5055357;28;20462;-61
2022/05/26 05:41:37;;;;;;;8.40;7.47;;;15.20;99.90;;;;;;5054847;28;20458;-61
2022/05/26 05:44:05;;;;;;;8.07;6.90;;;15.30;99.90;;;;;;5039359;28;20509;-60
2022/05/26 05:46:53;;;;;;;7.97;7.17;;;15.40;99.90;;;;;;5055346;28;20648;-61
2022/05/26 05:49:22;;;;;;;7.90;7.10;;;15.50;99.90;;;;;;5045737;28;20495;-61
2022/05/26 05:51:49;;;;;;;8.57;7.73;;;15.50;99.90;;;;;;5051406;28;20490;-60
2022/05/26 05:54:17;;;;;;;8.00;7.30;;;15.50;99.90;;;;;;5051509;28;20460;-61
2022/05/26 05:56:44;;;;;;;7.50;6.90;;;15.50;99.90;;;;;;5035292;28;20439;-61
2022/05/26 05:59:12;;;;;;;6.87;6.30;;;15.50;99.90;;;;;;5044654;28;20839;-61
2022/05/26 06:01:39;;;;;;;7.33;6.63;;;15.60;99.90;;;;;;5049473;28;20529;-61
2022/05/26 06:04:07;;;;;;;6.90;6.30;;;15.60;99.90;;;;;;5046261;28;20463;-61
2022/05/26 06:06:39;;;;;;;8.37;6.30;;;15.70;99.90;;;;;;5048489;28;20458;-62
2022/05/26 06:09:08;;;;;;;6.23;5.63;;;16.00;99.90;;;;;;5054336;28;20990;-62
2022/05/26 06:11:35;;;;;;;6.60;5.80;;;16.20;99.90;;;;;;5054915;28;20513;-61
2022/05/26 06:14:03;;;;;;;6.57;4.90;;;16.30;99.90;;;;;;5055306;28;20470;-62
2022/05/26 06:16:30;;;;;;;6.13;5.53;;;16.40;99.90;;;;;;5053436;28;20467;-62
2022/05/26 06:18:58;;;;;;;5.33;4.70;;;16.50;99.90;;;;;;5051620;28;20841;-62
2022/05/26 06:21:25;;;;;;;6.47;5.23;;;16.40;99.90;;;;;;5054376;28;20471;-64
2022/05/26 06:23:56;;;;;;;6.67;6.07;;;16.50;99.90;;;;;;5054352;28;20473;-62
2022/05/26 06:26:24;;;;;;;6.20;5.60;;;16.50;99.90;;;;;;5055146;28;20435;-62
2022/05/26 06:31:35;;;;;;;6.73;6.10;;;16.60;99.90;;;;;;5053192;28;21000;-61
2022/05/26 06:39:32;;;;;;;7.70;7.00;;;17.30;98.80;;;;;;5035135;28;20414;-62
2022/05/26 06:42:09;;;;;;;6.63;5.90;;;17.20;98.60;;;;;;5034678;28;20443;-62
2022/05/26 06:44:38;;;;;;;8.60;7.07;;;17.30;98.30;;;;;;5034794;28;20480;-62
2022/05/26 06:47:08;;;;;;;10.23;7.60;;;17.40;97.80;;;;;;5034478;28;20933;-63
2022/05/26 06:49:36;;;;;;;7.43;6.40;;;17.40;97.40;;;;;;5037650;28;20487;-61
2022/05/26 06:52:04;;;;;;;7.30;6.60;;;17.50;97.20;;;;;;5037901;28;20471;-63
2022/05/26 06:54:34;;;;;;;6.40;5.80;;;17.50;96.60;;;;;;5034564;28;20450;-61
2022/05/26 06:57:01;;;;;;;9.83;7.17;;;17.50;96.40;;;;;;5034543;28;20474;-62
2022/05/26 06:59:29;;;;;;;8.17;6.27;;;17.50;96.10;;;;;;5034756;28;20447;-62
2022/05/26 07:01:56;;;;;;;9.87;6.23;;;17.50;95.80;;;;;;5034472;28;20482;-61
2022/05/26 07:04:23;;;;;;;8.70;6.80;;;17.50;95.70;;;;;;5034208;28;20452;-62
2022/05/26 07:06:52;;;;;;;7.03;6.33;;;17.60;95.40;;;;;;5034054;28;21000;-62
2022/05/26 07:09:19;;;;;;;9.20;6.97;;;17.70;95.00;;;;;;5034164;28;20536;-62
2022/05/26 07:11:48;;;;;;;9.03;8.03;;;17.70;94.70;;;;;;5033991;28;20452;-62
2022/05/26 07:14:15;;;;;;;7.50;6.90;;;17.70;94.30;;;;;;5033920;28;20492;-62
2022/05/26 07:16:44;;;;;;;7.87;6.57;;;17.70;94.40;;;;;;5034303;28;20448;-62
2022/05/26 07:19:13;;;;;;;8.37;7.33;;;17.70;94.20;;;;;;5034088;28;20505;-64
2022/05/26 07:21:43;;;;;;;7.60;6.40;;;17.70;94.30;;;;;;5049403;28;20476;-62
2022/05/26 07:24:10;;;;;;;11.90;6.60;;;17.70;94.30;;;;;;5054705;28;20925;-62
2022/05/26 07:26:37;;;;;;;8.87;7.10;;;17.70;94.50;;;;;;5048018;28;20471;-63
2022/05/26 07:29:06;;;;;;;8.90;6.50;;;17.60;94.60;;;;;;5037066;28;20861;-62
2022/05/26 07:31:33;;;;;;;13.23;6.73;;;17.60;94.80;;;;;;5051646;28;20474;-62
2022/05/26 07:34:00;;;;;;;7.50;6.53;;;17.70;94.80;;;;;;5053895;28;21015;-64
2022/05/26 07:42:00;;;;;;;11.17;6.60;;;18.50;92.40;;;;;;5035323;28;20416;-64
2022/05/26 07:44:32;;;;;;;7.20;6.20;;;18.50;91.90;;;;;;5051724;28;20536;-62
2022/05/26 07:46:59;;;;;;;8.27;6.47;;;18.30;91.90;;;;;;5053020;28;20456;-63
2022/05/26 07:49:26;;;;;;;8.77;6.60;;;18.10;91.80;;;;;;5050566;28;21059;-62
2022/05/26 07:51:53;;;;;;;7.83;7.03;;;17.90;92.00;;;;;;5051449;28;20480;-62
2022/05/26 07:54:20;;;;;;;8.80;7.90;;;17.60;93.20;;;;;;5049702;28;20465;-62
2022/05/26 07:56:47;;;;;;;10.70;8.13;;;17.20;94.90;;;;;;5041707;28;20462;-63
2022/05/26 07:59:15;;;;;;;11.43;8.40;;;16.90;96.10;;;;;;5049792;28;20443;-63
2022/05/26 08:01:43;;;;;;;14.20;7.30;;;16.70;97.40;;;;;;5039789;28;20455;-62
2022/05/26 08:04:10;;;;;;;10.93;8.50;;;16.60;98.00;;;;;;5050935;28;20455;-61
2022/05/26 08:06:37;;;;;;;8.53;6.20;;;16.50;98.40;;;;;;5052875;28;20472;-63
2022/05/26 08:09:04;;;;;;;11.53;5.67;;;16.40;98.40;;;;;;5048567;28;20506;-64
2022/05/26 08:11:32;;;;;;;7.03;5.90;;;16.40;98.00;;;;;;5035716;28;20455;-63
2022/05/26 08:13:59;;;;;;;9.93;6.40;;;16.40;97.20;;;;;;5038057;28;20471;-65
2022/05/26 08:16:26;;;;;;;6.87;6.10;;;16.50;97.00;;;;;;5056657;28;20461;-64
2022/05/26 08:18:54;;;;;;;7.33;6.27;;;16.60;96.30;;;;;;5049915;28;20488;-65
2022/05/26 08:21:21;;;;;;;9.80;6.60;;;16.90;95.70;;;;;;5053890;28;20446;-64
2022/05/26 08:23:48;;;;;;;9.23;7.07;;;17.20;95.10;;;;;;5056378;28;20456;-64
2022/05/26 08:26:15;;;;;;;10.13;7.17;;;17.40;94.50;;;;;;5055748;28;20548;-64
2022/05/26 08:28:43;;;;;;;10.40;6.53;;;17.70;93.90;;;;;;5056049;28;20482;-63
2022/05/26 08:31:13;;;;;;;7.70;6.10;;;17.90;92.70;;;;;;5055247;28;20447;-63
2022/05/26 08:33:41;;;;;;;8.70;5.40;;;18.20;91.00;;;;;;5037065;28;20463;-64
2022/05/26 08:36:11;;;;;;;6.77;4.97;;;18.40;89.20;;;;;;5058442;22;20498;-62
2022/05/26 08:38:39;;;;;;;5.60;3.70;;;18.50;85.30;;;;;;5033622;28;20909;-62
2022/05/26 08:41:07;;;;;;;6.57;3.80;;;18.60;81.50;;;;;;5033620;28;20447;-63
2022/05/26 08:43:39;;;;;;;5.70;3.40;;;18.80;77.20;;;;;;5031460;28;20466;-61
2022/05/26 08:46:09;;;;;;;5.20;4.30;;;19.00;70.20;;;;;;5033355;28;20471;-63
2022/05/26 08:48:51;;;;;;;4.60;3.73;;;19.10;68.20;;;;;;5032681;28;20458;-63
2022/05/26 08:51:41;;;;;;;6.43;4.30;;;19.00;68.20;;;;;;5033711;28;20427;-63
2022/05/26 08:54:15;;;;;;;6.73;3.83;;;19.10;67.50;;;;;;5032831;28;20451;-64
2022/05/26 08:56:44;;;;;;;4.77;3.40;;;19.20;66.90;;;;;;5033916;28;20482;-63
2022/05/26 08:59:14;;;;;;;5.33;3.83;;;19.20;65.50;;;;;;5036006;28;20447;-63
2022/05/26 09:01:41;;;;;;;6.50;4.67;;;19.30;65.10;;;;;;5035510;28;20473;-65
2022/05/26 09:04:10;;;;;;;5.53;4.50;;;19.40;64.50;;;;;;5036595;28;20454;-63
2022/05/26 09:15:17;;;;;;;5.60;4.27;;;19.80;60.90;;;;;;5035374;28;20460;-63
2022/05/26 09:17:44;;;;;;;5.83;4.20;;;20.00;61.50;;;;;;5035751;28;20947;-62
2022/05/26 09:20:39;;;;;;;5.13;3.33;;;20.10;60.00;;;;;;5036407;28;20444;-62
2022/05/26 09:23:16;;;;;;;5.90;3.13;;;20.20;57.80;;;;;;5037540;28;20458;-61
2022/05/26 09:25:47;;;;;;;6.33;3.20;;;20.20;57.00;;;;;;5036715;28;20502;-62
2022/05/26 09:28:31;;;;;;;4.60;2.87;;;20.10;55.90;;;;;;5037026;28;20436;-61
2022/05/26 09:31:18;;;;;;;4.30;2.90;;;19.90;55.70;;;;;;5036265;28;20994;-61
2022/05/26 09:33:59;;;;;;;5.80;3.30;;;19.70;56.00;;;;;;5033996;28;20526;-64
2022/05/26 09:36:28;;;;;;;4.73;2.87;;;19.60;56.90;;;;;;5035576;28;20523;-68
2022/05/26 09:38:58;;;;;;;8.77;3.50;;;19.70;57.50;;;;;;5036602;28;20497;-62
2022/05/26 09:41:26;;;;;;;6.07;2.73;;;19.70;57.40;;;;;;5036471;28;20790;-62
2022/05/26 09:43:56;;;;;;;4.20;2.90;;;19.70;57.30;;;;;;5036336;28;20452;-63
2022/05/26 09:46:26;;;;;;;5.77;3.03;;;19.60;56.90;;;;;;5035974;28;20496;-62
2022/05/26 09:48:58;;;;;;;5.53;3.23;;;19.40;57.40;;;;;;5035498;28;20448;-62
2022/05/26 09:51:27;;;;;;;7.40;2.67;;;19.50;57.60;;;;;;5034463;28;20558;-63
2022/05/26 09:53:57;;;;;;;3.50;2.77;;;19.60;57.70;;;;;;5034750;28;20468;-62
2022/05/26 09:56:31;;;;;;;6.20;3.30;;;19.80;57.20;;;;;;5035363;28;20473;-62
2022/05/26 09:58:58;;;;;;;7.20;3.30;;;20.00;56.60;;;;;;5035764;28;20551;-62
2022/05/26 10:01:43;;;;;;;5.83;3.03;;;20.00;56.30;;;;;;5035430;28;20446;-62
2022/05/26 10:04:25;;;;;;;3.90;2.80;;;20.00;56.40;;;;;;5035588;28;20442;-61
2022/05/26 10:06:58;;;;;;;5.07;3.60;;;20.00;56.40;;;;;;5035332;28;20805;-61
2022/05/26 10:09:36;;;;;;;9.33;3.30;;;20.00;55.80;;;;;;5034309;28;20574;-62
2022/05/26 10:12:13;;;;;;;4.83;2.87;;;20.00;55.70;;;;;;5035713;28;20436;-61
2022/05/26 10:14:59;;;;;;;4.97;2.27;;;19.90;54.80;;;;;;5036904;28;20436;-62
2022/05/26 10:17:39;;;;;;;4.00;2.87;;;19.80;54.70;;;;;;5034832;28;20466;-62
2022/05/26 10:20:18;;;;;;;4.90;2.30;;;20.00;54.80;;;;;;5035653;28;20433;-63
2022/05/26 10:22:58;;;;;;;5.13;3.20;;;20.40;53.40;;;;;;5034375;28;20469;-62
2022/05/26 10:25:31;;;;;;;8.80;2.57;;;20.50;52.50;;;;;;5035079;28;20471;-61
2022/05/26 10:28:48;;;;;;;4.30;2.77;;;20.50;51.90;;;;;;5034518;28;20499;-62
2022/05/26 10:31:29;;;;;;;5.90;2.67;;;20.50;52.10;;;;;;5035772;28;20492;-63
2022/05/26 10:34:25;;;;;;;6.07;2.77;;;20.50;51.50;;;;;;5038231;28;20467;-63
2022/05/26 10:37:01;;;;;;;6.97;3.03;;;20.30;51.40;;;;;;5040664;28;20555;-64
2022/05/26 10:39:43;;;;;;;5.10;2.80;;;20.00;51.80;;;;;;5039788;28;20435;-63
2022/05/26 10:42:17;;;;;;;6.20;2.40;;;19.80;52.10;;;;;;5040067;28;20539;-63
2022/05/26 10:44:53;;;;;;;4.70;2.80;;;19.90;52.70;;;;;;5040530;28;20438;-64
2022/05/26 10:47:26;;;;;;;3.70;2.53;;;20.20;52.90;;;;;;5038886;28;20465;-63
2022/05/26 10:49:57;;;;;;;4.90;2.53;;;20.70;52.30;;;;;;5036624;28;20486;-63
2022/05/26 10:52:30;;;;;;;5.20;2.40;;;21.10;51.70;;;;;;5037876;28;20444;-64
2022/05/26 10:55:02;;;;;;;5.87;2.90;;;21.00;51.30;;;;;;5039202;28;20572;-64
2022/05/26 10:57:39;;;;;;;4.37;2.00;;;21.00;51.00;;;;;;5038196;28;20521;-63
2022/05/26 11:00:09;;;;;;;3.17;2.57;;;20.80;50.60;;;;;;5036567;28;20428;-64
2022/05/26 11:02:43;;;;;;;3.80;2.30;;;20.80;50.30;;;;;;5035036;28;20435;-64
2022/05/26 11:05:17;;;;;;;4.20;2.20;;;20.80;50.30;;;;;;5033923;28;20484;-63
2022/05/26 11:07:51;;;;;;;4.17;2.50;;;20.80;50.30;;;;;;5034230;28;20438;-63
2022/05/26 11:10:22;;;;;;;3.93;1.93;;;20.80;50.50;;;;;;5034119;28;20470;-63
2022/05/26 11:12:55;;;;;;;5.23;2.30;;;20.80;50.50;;;;;;5033844;28;20837;-63
2022/05/26 11:18:19;;;;;;;5.30;2.80;;;20.90;50.00;;;;;;5034977;28;20494;-63
2022/05/26 11:20:53;;;;;;;4.87;2.80;;;20.90;50.00;;;;;;5034862;28;20520;-64
2022/05/26 11:23:22;;;;;;;3.20;2.30;;;20.80;50.00;;;;;;5033973;28;20442;-64
2022/05/26 11:25:57;;;;;;;2.13;1.53;;;20.80;50.00;;;;;;5033729;28;20472;-63
2022/05/26 11:28:32;;;;;;;5.33;2.30;;;20.70;50.20;;;;;;5033794;28;20439;-66
2022/05/26 11:36:51;;;;;;;4.23;2.50;;;21.00;49.80;;;;;;5008668;28;20480;-65
2022/05/26 11:39:22;;;;;;;5.57;2.13;;;21.10;49.10;;;;;;5033186;28;20800;-66
2022/05/26 11:41:53;;;;;;;4.80;3.00;;;21.30;49.00;;;;;;5050201;28;20437;-65
2022/05/26 11:44:42;;;;;;;5.03;2.00;;;21.50;48.80;;;;;;5040250;28;20455;-66
2022/05/26 11:47:34;;;;;;;6.73;2.43;;;21.60;49.00;;;;;;5033295;28;20943;-65
2022/05/26 11:50:21;;;;;;;6.03;2.77;;;21.90;48.90;;;;;;5031322;28;20484;-64
2022/05/26 11:53:12;;;;;;;4.30;2.47;;;22.10;48.30;;;;;;5033260;28;20514;-63
2022/05/26 11:55:51;;;;;;;2.63;2.17;;;22.20;47.70;;;;;;5033200;28;20467;-65
2022/05/26 11:58:32;;;;;;;4.87;2.40;;;22.70;47.40;;;;;;5031972;28;20463;-63
2022/05/26 12:01:38;;;;;;;4.17;2.17;;;23.60;46.40;;;;;;5032971;28;20946;-64
2022/05/26 12:04:26;;;;;;;4.03;1.73;;;24.30;44.70;;;;;;4992896;28;20452;-64
2022/05/26 12:06:56;;;;;;;3.70;2.00;;;24.10;43.60;;;;;;5024912;28;20484;-63
2022/05/26 12:09:32;;;;;;;5.10;2.50;;;23.40;44.20;;;;;;5035219;28;20436;-64
2022/05/26 12:12:02;;;;;;;3.70;2.20;;;23.10;45.10;;;;;;5035471;28;20494;-64
2022/05/26 12:14:33;;;;;;;4.17;1.97;;;23.50;44.80;;;;;;5034063;28;20450;-65
2022/05/26 12:17:34;;;;;;;5.10;2.20;;;23.60;44.30;;;;;;5033078;28;20972;-63
2022/05/26 12:20:05;;;;;;;4.00;2.03;;;23.30;44.60;;;;;;5031649;28;20458;-64
2022/05/26 12:22:36;;;;;;;5.90;2.03;;;22.90;45.20;;;;;;5031543;28;20509;-65
2022/05/26 12:25:21;;;;;;;4.03;2.10;;;22.60;45.40;;;;;;5032993;28;20477;-64
2022/05/26 12:28:24;;;;;;;3.40;1.67;;;22.20;46.00;;;;;;5032735;28;20431;-64
2022/05/26 12:31:12;;;;;;;4.77;1.80;;;21.90;45.70;;;;;;5034033;28;21052;-64
2022/05/26 12:34:06;;;;;;;3.40;1.37;;;22.30;44.70;;;;;;5036422;28;20462;-64
2022/05/26 12:36:57;;;;;;;3.87;1.80;;;22.70;44.00;;;;;;5037111;28;20532;-64
2022/05/26 12:39:58;;;;;;;2.27;1.30;;;22.80;43.90;;;;;;5032074;28;20462;-63
2022/05/26 12:42:49;;;;;;;3.90;2.30;;;22.60;44.20;;;;;;5037564;28;20433;-64
2022/05/26 12:45:33;;;;;;;3.00;1.77;;;22.30;45.00;;;;;;5036811;28;20488;-63
2022/05/26 12:48:32;;;;;;;2.60;1.50;;;22.00;45.30;;;;;;5035315;28;20462;-63
2022/05/26 12:51:09;;;;;;;3.30;1.50;;;21.60;44.90;;;;;;5025315;28;20859;-64
2022/05/26 12:53:40;;;;;;;3.10;1.90;;;21.30;45.30;;;;;;5037071;28;20448;-63
2022/05/26 12:56:11;;;;;;;3.77;1.90;;;21.30;45.80;;;;;;5037243;28;20467;-63
2022/05/26 12:58:43;;;;;;;2.70;1.63;;;21.30;45.80;;;;;;5037072;28;20430;-64
2022/05/26 13:01:14;;;;;;;3.90;2.00;;;21.20;46.10;;;;;;5043952;28;20426;-65
2022/05/26 13:03:43;;;;;;;5.17;2.07;;;21.00;46.80;;;;;;5051227;28;20432;-64
2022/05/26 13:06:17;;;;;;;5.57;1.93;;;20.80;47.60;;;;;;5053503;28;21006;-64
2022/05/26 13:08:50;;;;;;;3.83;1.80;;;20.70;48.40;;;;;;5051149;28;20431;-65
2022/05/26 13:11:20;;;;;;;6.03;2.00;;;20.50;49.10;;;;;;5044085;28;21046;-65
2022/05/26 13:13:51;;;;;;;4.53;2.00;;;20.50;49.80;;;;;;5044856;28;20499;-64
2022/05/26 13:16:26;;;;;;;2.67;1.70;;;20.40;50.10;;;;;;5043394;28;20468;-64
2022/05/26 13:18:53;;;;;;;2.80;1.90;;;20.40;50.20;;;;;;5044460;28;20429;-64
2022/05/26 13:21:24;;;;;;;4.70;2.30;;;20.50;50.30;;;;;;5043526;28;20443;-64
2022/05/26 13:23:52;;;;;;;5.30;1.93;;;20.60;50.20;;;;;;5040169;28;20548;-64
2022/05/26 13:26:20;;;;;;;4.63;1.97;;;20.70;50.00;;;;;;5036787;28;20842;-63
2022/05/26 13:28:50;;;;;;;5.27;2.33;;;20.80;49.80;;;;;;5036569;28;20973;-63
2022/05/26 13:34:05;;;;;;;2.40;1.67;;;21.10;49.40;;;;;;5036366;28;20521;-63
2022/05/26 13:36:37;;;;;;;2.30;1.20;;;21.20;48.90;;;;;;5036466;28;20474;-63
2022/05/26 13:39:11;;;;;;;5.30;2.00;;;21.30;48.60;;;;;;5038805;28;20437;-63
2022/05/26 13:41:39;;;;;;;3.40;1.77;;;21.50;48.00;;;;;;5036901;28;20430;-63
2022/05/26 13:44:09;;;;;;;3.40;1.60;;;21.60;47.70;;;;;;5038052;28;20852;-63
2022/05/26 13:46:39;;;;;;;4.53;2.03;;;21.60;47.50;;;;;;5036941;28;20563;-65
2022/05/26 13:49:23;;;;;;;2.70;1.40;;;21.60;47.40;;;;;;5037108;28;20436;-64
2022/05/26 13:51:54;;;;;;;5.43;1.53;;;21.50;47.40;;;;;;5035773;28;20476;-64
2022/05/26 13:54:32;;;;;;;4.13;2.33;;;21.30;47.50;;;;;;5035643;28;20820;-63
2022/05/26 13:57:02;;;;;;;2.57;1.87;;;21.00;47.90;;;;;;5035603;28;20564;-64
2022/05/26 13:59:33;;;;;;;7.43;1.97;;;20.90;48.40;;;;;;5035402;28;20454;-63
2022/05/26 14:02:09;;;;;;;4.80;2.00;;;21.00;48.50;;;;;;5035003;28;20949;-64
2022/05/26 14:04:40;;;;;;;3.57;1.97;;;21.20;48.30;;;;;;5035600;28;20483;-64